Time;durP1;ratioP1;P1;durP2;ratioP2;P2;SDS_P1;SDS_P2;PMS_P1;PMS_P2;Temp;Humidity;BMP_temperature;BMP_pressure;BME280_temperature;BME280_humidity;BME280_pressure;Samples;Min_cycle;Max_cycle;Signal;HPM_P1;HPM_P2
2022/10/29 00:00:28;;;;;;;22.75;7.35;;;;;;;17.25;53.29;102123.06;7392174;19;20010;-64
2022/10/29 00:02:54;;;;;;;17.45;6.70;;;;;;;17.21;53.55;102116.66;7391916;19;20003;-64
2022/10/29 00:05:19;;;;;;;23.73;7.07;;;;;;;17.21;53.49;102116.66;7391906;19;20010;-63
2022/10/29 00:07:45;;;;;;;24.58;7.43;;;;;;;17.16;53.72;102122.44;7388971;19;20348;-63
2022/10/29 00:10:11;;;;;;;26.52;8.23;;;;;;;17.15;53.98;102131.84;7389655;19;19999;-65
2022/10/29 00:12:36;;;;;;;22.25;6.93;;;;;;;17.12;54.05;102130.63;7395668;19;20062;-66
2022/10/29 00:15:03;;;;;;;24.23;7.70;;;;;;;17.15;53.64;102134.63;7390274;19;20022;-64
2022/10/29 00:17:28;;;;;;;22.35;7.20;;;;;;;17.09;53.96;102133.28;7390257;19;20062;-66
2022/10/29 00:19:54;;;;;;;21.27;7.05;;;;;;;17.07;53.81;102139.16;7390955;19;20006;-64
2022/10/29 00:22:20;;;;;;;19.55;7.30;;;;;;;17.10;54.13;102143.16;7389548;19;20613;-65
2022/10/29 00:24:45;;;;;;;21.38;6.82;;;;;;;17.12;53.96;102149.13;7391464;19;20023;-64
2022/10/29 00:27:11;;;;;;;20.45;7.47;;;;;;;17.17;53.73;102148.88;7392287;19;20011;-64
2022/10/29 00:29:36;;;;;;;18.13;6.85;;;;;;;17.17;53.88;102146.91;7388793;19;19998;-65
2022/10/29 00:32:02;;;;;;;18.58;7.20;;;;;;;17.20;53.83;102145.38;7390958;19;19999;-65
2022/10/29 00:34:28;;;;;;;23.95;7.15;;;;;;;17.20;53.65;102145.38;7392221;19;20022;-65
2022/10/29 00:36:53;;;;;;;25.52;7.22;;;;;;;17.21;53.65;102155.28;7392347;19;19998;-64
2022/10/29 00:39:19;;;;;;;22.45;7.28;;;;;;;17.23;53.79;102158.47;7386334;19;19998;-65
2022/10/29 00:41:45;;;;;;;26.17;7.07;;;;;;;17.22;53.98;102154.13;7388729;19;19998;-65
2022/10/29 00:44:13;;;;;;;24.73;6.90;;;;;;;17.22;54.04;102156.91;7391589;19;20006;-65
2022/10/29 00:46:42;;;;;;;24.88;6.78;;;;;;;17.27;53.59;102161.31;7391127;19;19998;-65
2022/10/29 00:49:09;;;;;;;17.33;6.50;;;;;;;17.29;53.52;102157.09;7387945;19;19990;-64
2022/10/29 00:51:36;;;;;;;23.05;6.63;;;;;;;17.30;53.73;102152.38;7389902;19;20078;-65
2022/10/29 00:54:05;;;;;;;21.45;6.55;;;;;;;17.29;53.50;102164.59;7391175;19;20019;-65
2022/10/29 00:56:35;;;;;;;19.08;6.20;;;;;;;17.30;53.57;102164.22;7389471;19;20023;-65
2022/10/29 00:59:01;;;;;;;23.95;6.82;;;;;;;17.33;53.32;102163.50;7388256;19;19990;-65
2022/10/29 01:01:27;;;;;;;22.98;6.45;;;;;;;17.28;53.65;102161.00;7389696;19;19999;-65
2022/10/29 01:03:54;;;;;;;19.95;7.00;;;;;;;17.27;53.64;102153.88;7390512;19;20471;-64
2022/10/29 01:06:22;;;;;;;17.20;5.90;;;;;;;17.27;53.48;102153.03;7389729;19;20002;-65
2022/10/29 01:08:47;;;;;;;19.13;6.68;;;;;;;17.28;53.70;102154.66;7387822;19;20019;-64
2022/10/29 01:11:28;;;;;;;18.45;6.18;;;;;;;17.26;53.70;102156.97;7391821;19;19998;-64
2022/10/29 01:14:10;;;;;;;21.95;6.00;;;;;;;17.27;53.57;102175.13;7390631;19;20003;-64
2022/10/29 01:16:46;;;;;;;19.00;5.90;;;;;;;17.25;53.60;102174.69;7388768;19;20017;-65
2022/10/29 01:19:11;;;;;;;27.50;7.60;;;;;;;17.24;53.43;102171.13;7387471;19;20332;-65
2022/10/29 01:21:55;;;;;;;21.40;6.45;;;;;;;17.19;53.73;102174.16;7389361;19;19999;-65
2022/10/29 01:25:05;;;;;;;19.60;6.50;;;;;;;17.21;53.69;102175.38;7388998;19;20017;-65
2022/10/29 01:27:57;;;;;;;22.23;6.80;;;;;;;17.23;53.61;102179.75;7385815;19;20006;-65
2022/10/29 01:30:34;;;;;;;16.35;5.60;;;;;;;17.21;53.55;102183.66;7388201;19;19998;-65
2022/10/29 01:33:02;;;;;;;19.75;6.53;;;;;;;17.22;53.67;102178.97;7395922;19;20002;-67
2022/10/29 01:35:45;;;;;;;19.00;5.75;;;;;;;17.11;54.00;102177.88;7398659;19;19999;-66
2022/10/29 01:38:20;;;;;;;17.17;6.22;;;;;;;17.16;53.82;102180.38;7394727;19;20079;-66
2022/10/29 01:40:49;;;;;;;20.13;5.55;;;;;;;17.17;53.60;102179.22;7395802;19;20205;-65
2022/10/29 01:43:32;;;;;;;20.17;6.28;;;;;;;17.10;53.67;102171.56;7397986;19;20022;-65
2022/10/29 01:46:04;;;;;;;19.48;5.97;;;;;;;17.06;53.82;102169.84;7397050;19;20009;-65
2022/10/29 01:48:34;;;;;;;24.73;5.97;;;;;;;16.98;53.97;102174.38;7391843;19;20006;-65
2022/10/29 01:51:08;;;;;;;21.75;6.47;;;;;;;16.94;54.32;102165.22;7397445;19;20012;-65
2022/10/29 01:53:36;;;;;;;20.48;5.93;;;;;;;16.87;54.26;102174.09;7395043;19;19998;-66
2022/10/29 01:56:01;;;;;;;21.73;6.25;;;;;;;16.89;54.56;102188.31;7397542;19;19998;-66
2022/10/29 01:58:27;;;;;;;21.27;6.20;;;;;;;16.93;54.31;102175.41;7391189;19;20006;-66
2022/10/29 02:01:24;;;;;;;23.85;6.70;;;;;;;16.96;54.08;102152.66;7396869;19;20040;-67
2022/10/29 02:04:18;;;;;;;21.35;6.05;;;;;;;16.89;54.26;102155.22;7396098;19;20014;-66
2022/10/29 02:06:59;;;;;;;25.25;6.75;;;;;;;16.88;54.38;102148.09;7396749;19;20006;-66
2022/10/29 02:09:59;;;;;;;24.92;5.72;;;;;;;16.80;54.61;102138.84;7390668;19;20027;-66
2022/10/29 02:12:29;;;;;;;23.48;6.32;;;;;;;16.76;54.33;102137.94;7396130;19;20003;-65
2022/10/29 02:15:04;;;;;;;21.65;5.72;;;;;;;16.73;54.61;102141.38;7396500;19;20019;-65
2022/10/29 02:17:33;;;;;;;18.10;6.20;;;;;;;16.71;54.70;102148.41;7396399;19;20010;-65
2022/10/29 02:20:09;;;;;;;21.15;6.53;;;;;;;16.64;54.62;102133.28;7393579;19;19999;-65
2022/10/29 02:22:34;;;;;;;18.35;6.15;;;;;;;16.62;54.77;102134.78;7393890;19;19995;-65
2022/10/29 02:25:01;;;;;;;26.40;6.93;;;;;;;16.54;54.86;102136.53;7392964;19;20058;-66
2022/10/29 02:27:26;;;;;;;21.80;6.88;;;;;;;16.54;54.68;102139.28;7396047;19;20002;-65
2022/10/29 02:29:52;;;;;;;27.48;8.80;;;;;;;16.43;55.16;102136.22;7393619;19;20009;-65
2022/10/29 02:32:18;;;;;;;22.52;7.47;;;;;;;16.45;54.94;102133.09;7395950;19;20464;-65
2022/10/29 02:34:43;;;;;;;25.05;7.28;;;;;;;16.43;55.04;102133.47;7395766;19;20447;-65
2022/10/29 02:37:09;;;;;;;22.13;6.88;;;;;;;16.45;54.78;102147.69;7395631;19;20066;-65
2022/10/29 02:39:34;;;;;;;19.42;5.93;;;;;;;16.39;55.25;102149.06;7391375;19;19999;-65
2022/10/29 02:42:00;;;;;;;18.92;5.97;;;;;;;16.37;55.01;102140.34;7391336;19;20444;-65
2022/10/29 02:44:26;;;;;;;22.17;6.78;;;;;;;16.43;54.93;102144.47;7394323;19;19994;-66
2022/10/29 02:46:51;;;;;;;21.40;6.10;;;;;;;16.47;55.05;102141.84;7394804;19;20002;-65
2022/10/29 02:49:17;;;;;;;23.30;6.47;;;;;;;16.44;55.01;102137.00;7389318;19;20515;-65
2022/10/29 02:51:42;;;;;;;21.48;5.90;;;;;;;16.43;54.94;102133.47;7393454;19;20006;-66
2022/10/29 02:54:08;;;;;;;23.48;6.35;;;;;;;16.43;54.84;102132.63;7393097;19;20455;-66
2022/10/29 02:56:33;;;;;;;19.70;6.95;;;;;;;16.36;55.00;102129.69;7395432;19;20485;-65
2022/10/29 02:58:59;;;;;;;21.40;6.03;;;;;;;16.34;54.89;102132.78;7392316;19;19998;-66
2022/10/29 03:01:25;;;;;;;24.77;7.10;;;;;;;16.29;54.95;102124.75;7393100;19;20538;-65
2022/10/29 03:03:51;;;;;;;24.17;7.38;;;;;;;16.28;54.86;102129.47;7394540;19;19987;-65
2022/10/29 03:06:18;;;;;;;22.38;5.68;;;;;;;16.25;55.04;102130.16;7393721;19;20482;-65
2022/10/29 03:08:45;;;;;;;21.20;7.13;;;;;;;16.25;55.08;102126.59;7391854;19;19998;-65
2022/10/29 03:11:11;;;;;;;20.23;5.95;;;;;;;16.24;55.11;102114.00;7392053;19;20002;-64
2022/10/29 03:13:37;;;;;;;22.13;6.55;;;;;;;16.18;55.08;102109.88;7394647;19;19999;-66
2022/10/29 03:16:03;;;;;;;22.27;6.05;;;;;;;16.04;55.39;102104.75;7394944;19;20005;-65
2022/10/29 03:18:28;;;;;;;20.65;6.10;;;;;;;15.88;55.52;102088.94;7392098;19;19994;-66
2022/10/29 03:20:54;;;;;;;19.70;6.22;;;;;;;15.70;55.72;102084.84;7393014;19;19999;-66
2022/10/29 03:23:21;;;;;;;22.23;6.45;;;;;;;15.67;56.05;102097.34;7393954;19;20018;-66
2022/10/29 03:25:54;;;;;;;19.98;6.15;;;;;;;15.63;55.80;102093.69;7394146;19;20010;-67
2022/10/29 03:28:21;;;;;;;27.40;6.82;;;;;;;15.53;55.99;102100.41;7392376;19;20002;-66
2022/10/29 03:30:46;;;;;;;18.00;5.90;;;;;;;15.50;55.81;102081.84;7393298;19;20002;-66
2022/10/29 03:33:12;;;;;;;21.73;6.70;;;;;;;15.48;55.81;102095.13;7393567;19;20487;-66
2022/10/29 03:35:38;;;;;;;19.65;6.40;;;;;;;15.47;56.02;102098.22;7393133;19;20103;-66
2022/10/29 03:38:03;;;;;;;23.67;6.63;;;;;;;15.44;56.30;102107.16;7391673;19;20454;-66
2022/10/29 03:40:29;;;;;;;22.00;7.03;;;;;;;15.40;56.32;102109.81;7392788;19;20010;-65
2022/10/29 03:42:54;;;;;;;22.17;6.68;;;;;;;15.35;56.11;102101.78;7391854;19;20011;-65
2022/10/29 03:45:20;;;;;;;21.75;6.43;;;;;;;15.26;55.87;102114.81;7392797;19;20466;-65
2022/10/29 03:47:46;;;;;;;19.00;6.38;;;;;;;15.13;55.99;102109.31;7392175;19;20003;-65
2022/10/29 03:50:11;;;;;;;16.20;5.78;;;;;;;15.12;55.56;102104.94;7390977;19;20463;-66
2022/10/29 03:52:37;;;;;;;22.25;6.05;;;;;;;15.06;55.97;102108.25;7390199;19;20347;-66
2022/10/29 03:55:04;;;;;;;17.90;6.15;;;;;;;15.11;55.84;102103.34;7391869;19;20006;-65
2022/10/29 03:57:30;;;;;;;20.33;6.35;;;;;;;15.09;55.71;102113.06;7392462;19;20006;-65
2022/10/29 03:59:55;;;;;;;21.42;6.32;;;;;;;14.99;55.76;102111.56;7389940;19;20376;-65
2022/10/29 04:02:21;;;;;;;18.77;6.93;;;;;;;15.06;56.15;102108.25;7390775;19;20003;-65
2022/10/29 04:04:46;;;;;;;18.30;6.90;;;;;;;15.13;55.77;102117.56;7393235;19;20329;-65
2022/10/29 04:07:12;;;;;;;24.25;7.75;;;;;;;15.19;55.60;102118.13;7390505;19;20006;-65
2022/10/29 04:09:38;;;;;;;20.70;7.22;;;;;;;15.17;55.70;102114.94;7391482;19;20541;-65
2022/10/29 04:12:04;;;;;;;23.48;7.50;;;;;;;15.19;55.75;102120.88;7391863;19;20077;-64
2022/10/29 04:14:29;;;;;;;19.33;7.55;;;;;;;15.17;55.99;102142.44;7391062;19;20011;-64
2022/10/29 04:16:56;;;;;;;18.48;7.43;;;;;;;15.23;55.60;102143.00;7391545;19;20013;-64
2022/10/29 04:19:22;;;;;;;19.67;6.88;;;;;;;15.26;55.70;102148.63;7388188;19;20458;-66
2022/10/29 04:21:47;;;;;;;23.92;7.13;;;;;;;15.21;55.74;102148.06;7390537;19;20002;-65
2022/10/29 04:24:13;;;;;;;22.20;8.10;;;;;;;15.13;55.96;102153.31;7390902;19;20027;-65
2022/10/29 04:26:41;;;;;;;16.60;6.88;;;;;;;15.11;55.84;102139.09;7391439;19;20479;-65
2022/10/29 04:29:07;;;;;;;20.50;7.50;;;;;;;15.15;55.61;102131.78;7388837;19;20009;-65
2022/10/29 04:31:32;;;;;;;19.15;7.78;;;;;;;15.02;55.59;102137.59;7391599;19;19995;-65
2022/10/29 04:33:58;;;;;;;19.40;6.60;;;;;;;14.87;55.84;102136.28;7390697;19;20328;-65
2022/10/29 04:36:23;;;;;;;15.05;7.30;;;;;;;14.76;55.86;102147.69;7391973;19;19999;-65
2022/10/29 04:38:49;;;;;;;24.10;8.25;;;;;;;14.77;56.02;102143.78;7388474;19;19998;-65
2022/10/29 04:41:15;;;;;;;18.30;7.35;;;;;;;14.72;56.25;102135.72;7390943;19;20023;-65
2022/10/29 04:43:40;;;;;;;17.45;7.93;;;;;;;14.60;56.29;102133.72;7386502;19;19995;-65
2022/10/29 04:46:06;;;;;;;18.42;7.28;;;;;;;14.68;55.93;102123.81;7389948;19;19994;-64
2022/10/29 04:48:32;;;;;;;16.08;6.75;;;;;;;14.63;55.42;102126.78;7388481;19;20002;-64
2022/10/29 04:50:57;;;;;;;26.10;7.95;;;;;;;14.65;55.34;102124.47;7390663;19;20066;-65
2022/10/29 04:53:23;;;;;;;22.05;7.00;;;;;;;14.78;55.11;102134.41;7388414;19;20015;-65
2022/10/29 04:55:48;;;;;;;18.80;7.28;;;;;;;14.64;55.26;102139.34;7391614;19;19987;-65
2022/10/29 04:58:16;;;;;;;16.98;7.25;;;;;;;14.47;55.80;102128.53;7386110;19;19999;-65
2022/10/29 05:00:42;;;;;;;18.38;6.82;;;;;;;14.57;55.47;102122.63;7389822;19;20571;-65
2022/10/29 05:03:08;;;;;;;17.83;7.15;;;;;;;14.42;55.85;102122.09;7390451;19;19994;-65
2022/10/29 05:05:35;;;;;;;20.48;6.40;;;;;;;14.44;55.61;102130.00;7395995;19;19995;-65
2022/10/29 05:08:02;;;;;;;18.35;7.38;;;;;;;14.46;55.71;102121.41;7395735;19;20011;-65
2022/10/29 05:10:30;;;;;;;17.80;7.22;;;;;;;14.42;55.59;102121.28;7397939;19;20089;-65
2022/10/29 05:13:02;;;;;;;17.17;6.75;;;;;;;14.37;55.26;102119.53;7396177;19;19998;-64
2022/10/29 05:15:28;;;;;;;16.08;6.93;;;;;;;14.47;55.10;102118.34;7398014;19;20002;-64
2022/10/29 05:17:55;;;;;;;18.50;7.05;;;;;;;14.35;55.18;102116.31;7396143;19;20083;-64
2022/10/29 05:20:21;;;;;;;18.70;6.95;;;;;;;14.23;55.28;102127.25;7396697;19;20005;-64
2022/10/29 05:22:47;;;;;;;18.95;6.70;;;;;;;14.28;55.39;102126.22;7395013;19;20119;-64
2022/10/29 05:25:13;;;;;;;19.60;7.18;;;;;;;14.19;55.46;102129.03;7394949;19;20479;-65
2022/10/29 05:27:38;;;;;;;16.92;6.32;;;;;;;14.27;55.03;102133.69;7397368;19;20010;-64
2022/10/29 05:30:04;;;;;;;15.25;6.18;;;;;;;14.24;55.27;102137.09;7395338;19;19994;-65
2022/10/29 05:32:30;;;;;;;17.88;7.35;;;;;;;14.24;55.35;102134.34;7396432;19;20002;-65
2022/10/29 05:34:55;;;;;;;20.02;7.70;;;;;;;14.29;55.36;102139.63;7396727;19;20079;-65
2022/10/29 05:37:25;;;;;;;19.48;7.57;;;;;;;14.28;55.15;102140.78;7397715;19;20320;-65
2022/10/29 05:39:50;;;;;;;21.15;7.80;;;;;;;14.24;55.34;102137.09;7393452;19;20022;-65
2022/10/29 05:42:16;;;;;;;21.10;8.85;;;;;;;14.34;55.72;102146.88;7395028;19;19998;-65
2022/10/29 05:44:41;;;;;;;25.80;10.02;;;;;;;14.46;55.54;102151.63;7394764;19;20510;-65
2022/10/29 05:47:07;;;;;;;21.20;9.35;;;;;;;14.50;55.06;102145.13;7397338;19;20191;-65
2022/10/29 05:49:33;;;;;;;19.77;7.95;;;;;;;14.39;55.05;102150.22;7392835;19;19999;-65
2022/10/29 05:51:58;;;;;;;19.95;9.23;;;;;;;14.54;55.49;102153.50;7395838;19;19994;-65
2022/10/29 05:54:24;;;;;;;20.05;9.43;;;;;;;14.63;55.30;102160.53;7397524;19;20336;-65
2022/10/29 05:56:49;;;;;;;17.05;8.75;;;;;;;14.55;55.36;102155.13;7395485;19;20038;-65
2022/10/29 05:59:15;;;;;;;16.73;7.75;;;;;;;14.46;54.60;102144.19;7392530;19;20076;-65
2022/10/29 06:01:41;;;;;;;20.38;7.25;;;;;;;14.35;55.13;102137.50;7394963;19;20050;-65
2022/10/29 06:04:06;;;;;;;25.27;9.93;;;;;;;14.42;55.30;102135.03;7396398;19;20023;-65
2022/10/29 06:06:32;;;;;;;22.30;10.70;;;;;;;14.54;55.99;102132.31;7396318;19;19999;-65
2022/10/29 06:08:58;;;;;;;22.52;9.18;;;;;;;14.65;55.38;102127.22;7391012;19;20019;-65
2022/10/29 06:11:24;;;;;;;21.10;8.85;;;;;;;14.65;54.51;102123.69;7395453;19;20023;-64
2022/10/29 06:13:53;;;;;;;23.08;8.65;;;;;;;14.61;54.43;102129.03;7396833;19;20402;-65
2022/10/29 06:16:19;;;;;;;24.70;8.90;;;;;;;14.35;54.87;102127.31;7394364;19;20351;-64
2022/10/29 06:18:45;;;;;;;20.70;9.18;;;;;;;14.23;55.01;102141.00;7391143;19;20026;-64
2022/10/29 06:21:10;;;;;;;17.88;8.65;;;;;;;14.37;54.97;102146.22;7395179;19;20018;-66
2022/10/29 06:23:36;;;;;;;21.85;8.30;;;;;;;14.53;54.47;102140.91;7395260;19;20001;-65
2022/10/29 06:26:02;;;;;;;18.42;8.52;;;;;;;14.30;54.64;102130.25;7395470;19;20587;-65
2022/10/29 06:28:28;;;;;;;20.42;8.43;;;;;;;14.34;54.64;102131.19;7392433;19;20026;-65
2022/10/29 06:30:54;;;;;;;21.35;8.50;;;;;;;14.40;54.32;102127.13;7395257;19;19999;-65
2022/10/29 06:33:20;;;;;;;16.75;8.10;;;;;;;14.33;54.91;102115.88;7395570;19;20484;-66
2022/10/29 06:35:46;;;;;;;20.85;9.52;;;;;;;14.46;54.61;102126.91;7395638;19;20032;-65
2022/10/29 06:38:12;;;;;;;20.38;9.63;;;;;;;14.40;54.44;102129.84;7392298;19;20002;-65
2022/10/29 06:40:38;;;;;;;22.13;9.65;;;;;;;14.44;54.41;102122.56;7394014;19;20088;-65
2022/10/29 06:43:06;;;;;;;20.08;8.23;;;;;;;14.43;54.46;102131.94;7393588;19;20078;-65
2022/10/29 06:45:33;;;;;;;22.95;9.88;;;;;;;14.33;54.76;102142.50;7392951;19;19998;-65
2022/10/29 06:47:59;;;;;;;24.95;9.43;;;;;;;14.43;54.57;102142.94;7394036;19;20002;-65
2022/10/29 06:50:25;;;;;;;19.58;9.20;;;;;;;14.48;54.32;102146.59;7392620;19;19994;-65
2022/10/29 06:52:59;;;;;;;21.33;9.13;;;;;;;14.50;54.17;102145.13;7395652;19;19994;-64
2022/10/29 06:55:25;;;;;;;20.15;8.93;;;;;;;14.40;54.49;102140.06;7394339;19;20013;-65
2022/10/29 06:57:59;;;;;;;19.50;9.10;;;;;;;14.23;54.58;102144.53;7393444;19;19999;-65
2022/10/29 07:00:27;;;;;;;20.77;8.50;;;;;;;14.29;54.46;102147.88;7393346;19;20074;-64
2022/10/29 07:02:53;;;;;;;21.90;8.70;;;;;;;14.38;54.30;102148.63;7392415;19;20310;-65
2022/10/29 07:05:18;;;;;;;20.55;8.57;;;;;;;14.39;54.28;102136.47;7392468;19;20463;-65
2022/10/29 07:07:44;;;;;;;23.13;8.95;;;;;;;14.43;54.25;102140.19;7391803;19;19991;-65
2022/10/29 07:10:10;;;;;;;21.50;8.77;;;;;;;14.53;54.04;102149.13;7393388;19;20373;-65
2022/10/29 07:12:42;;;;;;;16.00;8.25;;;;;;;14.56;54.02;102153.97;7394746;19;20006;-65
2022/10/29 07:15:09;;;;;;;20.50;8.65;;;;;;;14.61;53.89;102156.50;7394106;19;19999;-64
2022/10/29 07:17:34;;;;;;;18.90;8.43;;;;;;;14.60;53.89;102155.72;7391386;19;20002;-65
2022/10/29 07:20:00;;;;;;;20.45;9.38;;;;;;;14.53;53.87;102149.97;7391068;19;19987;-64
2022/10/29 07:22:26;;;;;;;19.08;9.70;;;;;;;14.53;54.09;102160.13;7391757;19;20112;-64
2022/10/29 07:24:51;;;;;;;21.08;9.93;;;;;;;14.54;54.33;102167.25;7392156;19;20030;-65
2022/10/29 07:27:17;;;;;;;22.15;11.15;;;;;;;14.51;54.08;102170.66;7391219;19;20865;-65
2022/10/29 07:29:42;;;;;;;29.65;12.85;;;;;;;14.43;53.89;102162.16;7391161;19;20106;-65
2022/10/29 07:32:08;;;;;;;31.20;14.43;;;;;;;14.37;53.83;102157.19;7391394;19;20002;-64
2022/10/29 07:34:33;;;;;;;29.77;14.02;;;;;;;14.26;53.82;102145.78;7393578;19;19999;-65
2022/10/29 07:36:59;;;;;;;26.98;12.85;;;;;;;14.26;53.66;102140.28;7392848;19;20022;-65
2022/10/29 07:39:25;;;;;;;27.70;14.40;;;;;;;14.24;53.41;102124.19;7390563;19;19998;-65
2022/10/29 07:41:50;;;;;;;29.20;14.23;;;;;;;14.34;53.27;102125.69;7392036;19;20007;-65
2022/10/29 07:44:16;;;;;;;29.65;14.07;;;;;;;14.35;53.08;102130.06;7394169;19;20007;-65
2022/10/29 07:46:41;;;;;;;28.50;13.55;;;;;;;14.48;52.99;102143.84;7391979;19;20002;-65
2022/10/29 07:49:07;;;;;;;27.15;14.48;;;;;;;14.27;53.49;102147.41;7389426;19;20005;-65
2022/10/29 07:51:32;;;;;;;29.80;14.90;;;;;;;14.09;54.47;102151.41;7390295;19;20002;-64
2022/10/29 07:53:58;;;;;;;29.00;14.80;;;;;;;14.42;53.66;102141.31;7392627;19;20002;-65
2022/10/29 07:56:24;;;;;;;28.85;15.00;;;;;;;14.66;53.13;102141.78;7390707;19;20477;-66
2022/10/29 07:58:49;;;;;;;25.50;12.80;;;;;;;14.43;53.88;102142.94;7387875;19;20007;-65
2022/10/29 08:01:15;;;;;;;20.45;9.40;;;;;;;14.26;54.51;102148.53;7390340;19;20002;-65
2022/10/29 08:03:40;;;;;;;21.10;9.13;;;;;;;14.56;54.05;102148.47;7392464;19;20014;-65
2022/10/29 08:06:06;;;;;;;16.98;7.85;;;;;;;14.65;53.79;102146.47;7392820;19;20009;-65
2022/10/29 08:08:33;;;;;;;14.80;7.93;;;;;;;14.72;53.83;102149.47;7389115;19;20006;-65
2022/10/29 08:11:01;;;;;;;17.05;8.48;;;;;;;14.78;53.90;102153.66;7390083;19;20463;-65
2022/10/29 08:13:26;;;;;;;18.55;9.00;;;;;;;14.84;53.90;102151.50;7392451;19;20005;-65
2022/10/29 08:15:52;;;;;;;18.52;9.65;;;;;;;14.96;53.74;102154.31;7391160;19;20066;-65
2022/10/29 08:18:17;;;;;;;20.42;10.13;;;;;;;15.10;53.61;102162.22;7390256;19;20014;-65
2022/10/29 08:20:44;;;;;;;22.60;11.00;;;;;;;14.95;54.02;102168.38;7391520;19;20006;-65
2022/10/29 08:23:17;;;;;;;21.42;10.73;;;;;;;14.93;54.59;102167.88;7391905;19;20010;-65
2022/10/29 08:25:43;;;;;;;20.00;9.57;;;;;;;15.11;54.11;102176.78;7387742;19;20457;-65
2022/10/29 08:28:14;;;;;;;26.73;11.73;;;;;;;15.25;53.98;102173.75;7388191;19;20018;-65
2022/10/29 08:30:40;;;;;;;19.92;10.20;;;;;;;15.31;54.13;102177.88;7389718;19;19995;-65
2022/10/29 08:33:06;;;;;;;24.33;11.10;;;;;;;15.37;54.26;102176.50;7390236;19;20066;-65
2022/10/29 08:35:32;;;;;;;19.20;9.85;;;;;;;15.43;54.10;102180.66;7389867;19;20032;-65
2022/10/29 08:37:58;;;;;;;19.73;10.73;;;;;;;15.42;54.32;102173.53;7390487;19;20476;-65
2022/10/29 08:40:42;;;;;;;22.75;11.88;;;;;;;15.40;54.24;102170.34;7388382;19;20462;-66
2022/10/29 08:43:44;;;;;;;22.70;10.80;;;;;;;15.63;54.09;102167.16;7389641;19;19998;-66
2022/10/29 08:46:29;;;;;;;25.33;11.32;;;;;;;15.70;53.93;102145.41;7390445;19;19999;-66
2022/10/29 08:48:59;;;;;;;22.25;11.38;;;;;;;15.73;53.81;102147.44;7388183;19;20070;-66
2022/10/29 08:51:39;;;;;;;24.70;10.98;;;;;;;15.72;54.15;102148.59;7389388;19;20006;-66
2022/10/29 08:54:12;;;;;;;26.75;11.43;;;;;;;15.76;54.03;102133.00;7390946;19;20443;-66
2022/10/29 08:56:42;;;;;;;23.70;12.02;;;;;;;15.71;54.23;102135.97;7389714;19;20054;-66
2022/10/29 08:59:17;;;;;;;25.75;12.20;;;;;;;15.76;54.43;102138.50;7386920;19;20448;-66
2022/10/29 09:01:43;;;;;;;26.63;12.82;;;;;;;15.90;54.40;102135.41;7390238;19;20009;-66
2022/10/29 09:04:21;;;;;;;56.72;28.23;;;;;;;16.00;54.06;102148.69;7391611;19;20030;-66
2022/10/29 09:07:11;;;;;;;39.45;20.85;;;;;;;16.04;54.43;102137.78;7391408;19;19991;-66
2022/10/29 09:09:52;;;;;;;40.85;23.63;;;;;;;16.06;54.32;102141.78;7390551;19;19995;-66
2022/10/29 09:12:50;;;;;;;46.85;26.27;;;;;;;16.12;54.37;102144.31;7391231;19;20002;-66
2022/10/29 09:15:44;;;;;;;37.90;22.27;;;;;;;16.20;54.48;102140.63;7390580;19;20002;-66
2022/10/29 09:18:28;;;;;;;25.08;13.77;;;;;;;16.19;54.31;102142.56;7388092;19;20350;-66
2022/10/29 09:21:12;;;;;;;29.65;13.68;;;;;;;16.22;54.54;102144.63;7389235;19;20003;-65
2022/10/29 09:23:59;;;;;;;27.83;12.52;;;;;;;16.33;54.16;102149.66;7390887;19;20019;-65
2022/10/29 09:26:32;;;;;;;26.67;13.50;;;;;;;16.40;54.01;102142.41;7389210;19;20035;-66
2022/10/29 09:29:55;;;;;;;26.10;12.65;;;;;;;16.44;54.48;102135.03;7388152;19;20526;-66
2022/10/29 09:32:27;;;;;;;26.13;12.07;;;;;;;16.43;54.18;102122.44;7386622;19;20003;-66
2022/10/29 09:35:01;;;;;;;26.63;14.43;;;;;;;16.49;54.57;102114.75;7388510;19;20007;-66
2022/10/29 09:37:50;;;;;;;26.75;12.60;;;;;;;16.54;54.30;102120.00;7390755;19;20002;-65
2022/10/29 09:40:28;;;;;;;26.67;12.23;;;;;;;16.62;54.30;102112.75;7389756;19;20050;-66
2022/10/29 09:42:54;;;;;;;30.40;13.77;;;;;;;16.67;54.37;102108.91;7388504;19;20074;-66
2022/10/29 09:45:27;;;;;;;35.45;14.85;;;;;;;16.62;54.46;102112.75;7387959;19;19995;-66
2022/10/29 09:48:13;;;;;;;28.45;13.55;;;;;;;16.68;54.49;102110.53;7387569;19;20003;-66
2022/10/29 09:50:48;;;;;;;28.70;13.38;;;;;;;16.73;53.99;102129.56;7385224;19;20018;-66
2022/10/29 09:53:14;;;;;;;28.52;13.75;;;;;;;16.78;54.06;102126.56;7396054;19;20006;-65
2022/10/29 09:55:43;;;;;;;28.33;12.73;;;;;;;16.78;54.08;102118.28;7395071;19;20006;-65
2022/10/29 09:58:18;;;;;;;28.92;12.48;;;;;;;16.86;54.18;102117.31;7391704;19;20014;-65
2022/10/29 10:00:44;;;;;;;26.80;11.82;;;;;;;16.87;53.91;102113.44;7396651;19;20507;-65
2022/10/29 10:03:17;;;;;;;28.30;12.82;;;;;;;16.83;54.28;102118.03;7393410;19;20003;-65
2022/10/29 10:06:04;;;;;;;33.33;12.85;;;;;;;16.86;54.39;102109.06;7394653;19;20346;-65
2022/10/29 10:08:34;;;;;;;27.98;12.18;;;;;;;16.88;53.99;102120.53;7392951;19;20389;-65
2022/10/29 10:11:05;;;;;;;27.02;11.90;;;;;;;16.90;54.19;102118.25;7395253;19;19998;-65
2022/10/29 10:13:34;;;;;;;26.90;11.38;;;;;;;16.89;54.10;102124.09;7393805;19;20002;-65
2022/10/29 10:16:04;;;;;;;24.95;11.15;;;;;;;16.95;53.94;102129.00;7395486;19;20030;-65
2022/10/29 10:18:30;;;;;;;24.00;12.27;;;;;;;17.07;53.62;102127.31;7391565;19;20003;-66
2022/10/29 10:21:05;;;;;;;28.08;10.90;;;;;;;17.10;53.81;102132.94;7396005;19;20002;-66
2022/10/29 10:23:39;;;;;;;25.63;11.57;;;;;;;17.17;53.67;102118.53;7394208;19;20009;-66
2022/10/29 10:26:27;;;;;;;22.67;11.52;;;;;;;17.24;53.47;102102.16;7392561;19;20106;-65
2022/10/29 10:29:09;;;;;;;28.75;12.00;;;;;;;17.31;53.43;102107.09;7390239;19;20003;-66
2022/10/29 10:31:37;;;;;;;24.95;11.10;;;;;;;17.31;53.50;102109.84;7395137;19;19994;-66
2022/10/29 10:34:23;;;;;;;29.65;11.55;;;;;;;17.45;53.32;102106.63;7395041;19;20344;-65
2022/10/29 10:37:09;;;;;;;21.90;11.48;;;;;;;17.42;53.44;102099.06;7394858;19;20478;-66
2022/10/29 10:39:34;;;;;;;26.13;11.52;;;;;;;17.48;53.06;102103.16;7391018;19;20007;-65
2022/10/29 10:42:33;;;;;;;24.85;11.77;;;;;;;17.53;53.05;102091.84;7392394;19;20456;-65
2022/10/29 10:45:02;;;;;;;26.80;11.55;;;;;;;17.58;53.10;102094.31;7393441;19;20005;-66
2022/10/29 10:47:35;;;;;;;26.75;11.88;;;;;;;17.63;53.07;102091.28;7393712;19;20019;-66
2022/10/29 10:50:21;;;;;;;26.65;12.13;;;;;;;17.69;53.12;102091.81;7394465;19;20058;-66
2022/10/29 10:52:48;;;;;;;27.25;11.88;;;;;;;17.74;52.77;102089.56;7393958;19;20343;-65
2022/10/29 10:55:30;;;;;;;21.90;11.45;;;;;;;17.83;52.85;102083.84;7394616;19;19995;-66
2022/10/29 10:58:24;;;;;;;26.35;12.43;;;;;;;17.86;52.66;102085.09;7391188;19;19995;-66
2022/10/29 11:00:58;;;;;;;26.15;11.63;;;;;;;17.82;52.54;102073.16;7393330;19;20419;-66
2022/10/29 11:03:31;;;;;;;25.85;11.35;;;;;;;17.78;52.68;102077.81;7394452;19;20030;-66
2022/10/29 11:06:06;;;;;;;24.50;11.15;;;;;;;17.78;52.91;102077.81;7392707;19;19999;-65
2022/10/29 11:08:42;;;;;;;22.70;11.63;;;;;;;17.75;52.79;102066.34;7389176;19;20463;-66
2022/10/29 11:11:19;;;;;;;26.42;11.45;;;;;;;17.77;52.76;102063.22;7393324;19;20451;-66
2022/10/29 11:13:46;;;;;;;21.42;10.95;;;;;;;17.79;53.02;102062.81;7392829;19;20014;-66
2022/10/29 11:16:27;;;;;;;27.05;11.73;;;;;;;17.81;52.87;102046.72;7394516;19;20296;-66
2022/10/29 11:19:18;;;;;;;23.33;12.02;;;;;;;17.89;52.67;102040.97;7388962;19;20069;-66
2022/10/29 11:21:57;;;;;;;22.98;11.13;;;;;;;17.91;52.82;102033.13;7391339;19;20025;-65
2022/10/29 11:24:37;;;;;;;24.45;12.15;;;;;;;17.94;52.87;102021.34;7392040;19;20388;-66
2022/10/29 11:27:40;;;;;;;26.10;12.65;;;;;;;18.02;52.45;102027.84;7394140;19;20003;-65